Flight Track Log - Related Links

Times and Time Zones

All times are in EDT time to prevent confusion due to time zone crossing. See the GJS3710 flight status page for this flight to view local times or setup timezone preferences in your user account.

Time Position Orientation Groundspeed Altitude Reporting Facility
EDT Latitude Longitude Course Direction KTS MPH feet Rate Location/Type
Thu 08:15:40 PM 41.9667 -87.8667 66° East 166 191 2,100  Level Chicago TRACON
Thu 08:16:46 PM 41.9717 -87.7919 85° East 195 224 4,000 1,453 Climbing Chicago Center
Thu 08:17:48 PM 41.9853 -87.6953 79° East 256 295 5,200 1,935 Climbing Chicago Center
Thu 08:18:50 PM 42.0200 -87.5981 64° Northeast 297 342 8,000 2,758 Climbing Chicago Center
Thu 08:19:52 PM 42.0647 -87.5100 56° Northeast 289 333 10,900 2,516 Climbing Chicago Center
Thu 08:20:54 PM 42.1117 -87.4114 57° Northeast 303 349 13,200 1,839 Climbing Chicago Center
Thu 08:21:00 PM 42.2499 -87.1002 66° East  Level FlightAware Approximate
Thu 08:21:56 PM 42.1728 -87.2831 57° Northeast 334 384 14,700  Level Chicago Center
Thu 08:22:58 PM 42.1850 -87.1406 83° East 375 432 16,400 1,694 Climbing Chicago Center
Thu 08:24:00 PM 42.1925 -86.9944 86° East 388 447 18,200 1,694 Climbing Chicago Center
Thu 08:25:02 PM 42.2011 -86.8439 86° East 399 459 19,900 1,694 Climbing Chicago Center
Thu 08:26:04 PM 42.2058 -86.6758 88° East 412 474 21,700 1,632 Climbing Chicago Center
Thu 08:27:07 PM 42.2142 -86.5228 86° East 424 488 23,300 1,488 Climbing Chicago Center
Thu 08:28:09 PM 42.2203 -86.3611 87° East 430 495 24,800 1,403 Climbing Chicago Center
Thu 08:29:11 PM 42.2272 -86.1969 87° East 435 501 26,200 1,403 Climbing Chicago Center
Thu 08:30:13 PM 42.2356 -85.9992 87° East 439 505 27,700 1,113 Climbing Chicago Center
Thu 08:31:15 PM 42.2408 -85.8456 87° East 444 511 28,500 871 Climbing Chicago Center
Thu 08:32:17 PM 42.2483 -85.6736 87° East 456 525 29,500 1,065 Climbing Chicago Center
Thu 08:33:19 PM 42.2556 -85.4658 87° East 463 533 30,700 1,113 Climbing Chicago Center
Thu 08:34:21 PM 42.2619 -85.2953 87° East 461 531 31,800 1,065 Climbing Chicago Center
Thu 08:35:23 PM 42.2669 -85.1247 88° East 458 527 32,900 1,065 Climbing Chicago Center
Thu 08:36:25 PM 42.2431 -84.9603 101° East 456 525 34,000 1,065 Climbing Chicago Center
Thu 08:37:27 PM 42.2028 -84.7986 109° East 456 525 35,100 1,152 Climbing Chicago Center
Thu 08:38:30 PM 42.1522 -84.6081 110° East 451 519 36,400 1,152 Climbing Chicago Center
Thu 08:39:32 PM 42.1236 -84.4511 104° East 436 502 37,500 968 Climbing Chicago Center
Thu 08:40:34 PM 42.1358 -84.2942 84° East 423 487 38,400 738 Climbing Chicago Center
Thu 08:41:34 PM 42.1511 -84.1319 83° East 419 482 39,000 300 Climbing Cleveland Center
Thu 08:42:34 PM 42.1642 -83.9786 83° East 413 475 39,000  Level Cleveland Center
Thu 08:43:34 PM 42.1792 -83.8167 83° East 418 481 39,000  Level Cleveland Center
Thu 08:44:34 PM 42.1919 -83.6578 84° East 423 487 39,000  Level Cleveland Center
Thu 08:45:34 PM 42.2083 -83.5014 82° East 447 514 39,000  Level Cleveland Center
Thu 08:46:34 PM 42.2231 -83.3283 83° East 462 532 39,000  Level Cleveland Center
Thu 08:47:34 PM 42.2356 -83.1522 84° East 467 537 39,000  Level Cleveland Center
Thu 08:48:34 PM 42.2497 -82.9844 83° East 467 537 39,000  Level Cleveland Center
Thu 08:49:34 PM 42.2656 -82.8108 83° East 462 532 39,000  Level Cleveland Center
Thu 08:50:34 PM 42.2772 -82.6375 85° East 462 532 39,000  Level Cleveland Center
Thu 08:51:34 PM 42.2906 -82.4639 84° East 462 532 39,000  Level Cleveland Center
Thu 08:52:34 PM 42.3036 -82.2872 84° East 462 532 39,000  Level Cleveland Center
Thu 08:53:34 PM 42.3208 -82.0997 83° East 462 532 39,000  Level Cleveland Center
Thu 08:54:34 PM 42.3336 -81.9203 84° East 469 540 39,000  Level Cleveland Center
Thu 08:55:34 PM 42.3436 -81.7631 85° East 469 540 39,000  Level Cleveland Center
Thu 08:56:34 PM 42.3558 -81.5919 84° East 462 532 39,000  Level Cleveland Center
Thu 08:57:34 PM 42.3697 -81.4206 84° East 456 525 39,000  Level Cleveland Center
Thu 08:58:34 PM 42.3792 -81.2494 86° East 462 532 39,000  Level Cleveland Center
Thu 08:59:34 PM 42.3925 -81.0864 84° East 457 526 39,000  Level Cleveland Center
Thu 09:00:34 PM 42.4014 -80.9036 86° East 446 513 39,000  Level Cleveland Center
Thu 09:01:34 PM 42.4100 -80.7350 86° East 440 506 39,000  Level Cleveland Center
Thu 09:02:34 PM 42.4206 -80.5664 85° East 440 506 39,000  Level Cleveland Center
Thu 09:03:34 PM 42.4331 -80.4031 84° East 440 506 39,000  Level Cleveland Center
Thu 09:04:34 PM 42.4472 -80.2400 83° East 440 506 39,000  Level Cleveland Center
Thu 09:05:34 PM 42.4592 -80.0681 85° East 447 514 39,000 -350 Level Cleveland Center
Thu 09:06:34 PM 42.4728 -79.9019 84° East 447 514 38,300 -950 Descending Cleveland Center
Thu 09:07:34 PM 42.4864 -79.7414 83° East 441 507 37,100 -1,350 Descending Cleveland Center
Thu 09:08:34 PM 42.4975 -79.5750 85° East 441 507 35,600 -1,050 Descending Cleveland Center
Thu 09:09:34 PM 42.5064 -79.4031 86° East 446 513 35,000 -300 Descending Cleveland Center
Thu 09:10:34 PM 42.5211 -79.2308 83° East 451 519 35,000  Level Cleveland Center
Thu 09:11:34 PM 42.5314 -79.0506 86° East 469 540 35,000 -150 Level Cleveland Center
Thu 09:12:34 PM 42.5456 -78.8697 84° East 469 540 34,700 -950 Descending Cleveland Center
Thu 09:13:34 PM 42.5553 -78.6919 86° East 476 548 33,100 -1,000 Descending Cleveland Center
Thu 09:14:34 PM 42.5647 -78.5197 86° East 470 541 32,700 -1,000 Descending Cleveland Center
Thu 09:15:34 PM 42.5739 -78.3444 86° East 465 535 31,100 -850 Descending Cleveland Center
Thu 09:16:34 PM 42.5850 -78.1692 85° East 465 535 31,000 -50 Descending Cleveland Center
Thu 09:17:34 PM 42.5939 -77.9969 86° East 465 535 31,000  Level Cleveland Center
Thu 09:18:34 PM 42.6022 -77.8244 86° East 460 529 31,000 -200 Level Cleveland Center
Thu 09:19:34 PM 42.6131 -77.6658 85° East 460 529 30,600 -597 Descending Cleveland Center
Thu 09:21:55 PM 42.6344 -77.2417 86° East 467 537 29,000 -480 Descending Boston Center
Thu 09:22:54 PM 42.6417 -77.0697 87° East 457 526 29,000  Level Boston Center
Thu 09:23:54 PM 42.6508 -76.8953 86° East 457 526 29,000  Level Boston Center
Thu 09:24:54 PM 42.6594 -76.7208 86° East 457 526 29,000  Level Boston Center
Thu 09:25:54 PM 42.6658 -76.5461 87° East 457 526 29,000 -650 Level Boston Center
Thu 09:26:54 PM 42.6742 -76.3717 86° East 457 526 27,700 -1,545 Descending Boston Center
Thu 09:28:06 PM 42.6831 -76.1744 86° East 451 519 25,600 -1,682 Descending Boston Center
Thu 09:29:06 PM 42.6861 -76.0133 88° East 432 497 24,000 -1,600 Descending Boston Center
Thu 09:30:06 PM 42.6931 -75.8556 87° East 427 491 22,400 -1,600 Descending Boston Center
Thu 09:31:06 PM 42.6997 -75.7006 87° East 421 484 20,800 -1,600 Descending Boston Center
Thu 09:32:06 PM 42.7039 -75.5453 88° East 421 484 19,200 -1,450 Descending Boston Center
Thu 09:33:06 PM 42.7075 -75.4100 88° East 408 470 17,900 -1,450 Descending Boston Center
Thu 09:34:06 PM 42.7114 -75.2658 88° East 388 447 16,300 -1,600 Descending Boston Center
Thu 09:35:06 PM 42.7167 -75.1278 87° East 374 430 14,700 -1,600 Descending Boston Center
Thu 09:36:06 PM 42.7219 -74.9867 87° East 367 422 13,100 -1,636 Descending Boston Center
Thu 09:36:45 PM 42.7242 -74.8933 88° East 363 418 12,000 -1,000 Descending Boston Center
Thu 09:38:06 PM 42.7303 -74.7014 87° East 362 417 11,100 -448 Descending Boston Center
Thu 09:38:59 PM 42.7322 -74.5942 89° East 356 410 11,000 -106 Descending Boston Center
Thu 09:39:59 PM 42.7411 -74.4500 85° East 353 406 10,900 -248 Descending Boston Center
Thu 09:41:00 PM 42.7681 -74.3350 72° East 303 349 10,500 -1,033 Descending Boston Center
Thu 09:42:01 PM 42.7928 -74.2253 73° East 301 346 8,800 -1,686 Descending Boston Center
Thu 09:43:01 PM 42.8214 -74.1186 70° East 300 345 7,100 -1,686 Descending Boston Center
Thu 09:44:02 PM 42.8583 -74.0206 63° Northeast 290 334 5,400 -1,623 Descending Boston Center
Thu 09:45:03 PM 42.8908 -73.9250 65° Northeast 274 315 3,800 -1,388 Descending Boston Center
Thu 09:46:03 PM 42.8961 -73.8344 85° East 236 272 2,600 -1,200 Descending Boston Center

Login

Don't have an account? Register now (free) for customized features, flight alerts, and more!